sensor_id;sensor_type;location;lat;lon;timestamp;temperature;humidity
21331;DHT22;10824;51.632;4.950;2023-04-24T00:01:28;10.10;99.90
21331;DHT22;10824;51.632;4.950;2023-04-24T00:03:56;10.10;99.90
21331;DHT22;10824;51.632;4.950;2023-04-24T00:06:26;10.20;99.90
21331;DHT22;10824;51.632;4.950;2023-04-24T00:09:00;10.20;99.90
21331;DHT22;10824;51.632;4.950;2023-04-24T00:11:28;10.20;99.90
21331;DHT22;10824;51.632;4.950;2023-04-24T00:13:56;10.10;99.90
21331;DHT22;10824;51.632;4.950;2023-04-24T00:16:23;10.20;99.90
21331;DHT22;10824;51.632;4.950;2023-04-24T00:18:51;10.20;99.90
21331;DHT22;10824;51.632;4.950;2023-04-24T00:21:19;10.10;99.90
21331;DHT22;10824;51.632;4.950;2023-04-24T00:23:47;10.10;99.90
21331;DHT22;10824;51.632;4.950;2023-04-24T00:26:14;10.10;99.90
21331;DHT22;10824;51.632;4.950;2023-04-24T00:28:41;10.10;99.90
21331;DHT22;10824;51.632;4.950;2023-04-24T00:31:09;10.10;99.90
21331;DHT22;10824;51.632;4.950;2023-04-24T00:33:36;10.10;99.90
21331;DHT22;10824;51.632;4.950;2023-04-24T00:36:03;10.10;99.90
21331;DHT22;10824;51.632;4.950;2023-04-24T00:38:31;10.10;99.90
21331;DHT22;10824;51.632;4.950;2023-04-24T00:40:58;10.10;99.90
21331;DHT22;10824;51.632;4.950;2023-04-24T00:43:25;10.10;99.90
21331;DHT22;10824;51.632;4.950;2023-04-24T00:45:52;10.10;99.90
21331;DHT22;10824;51.632;4.950;2023-04-24T00:48:20;10.10;99.90
21331;DHT22;10824;51.632;4.950;2023-04-24T00:50:48;10.10;99.90
21331;DHT22;10824;51.632;4.950;2023-04-24T00:53:15;10.10;99.90
21331;DHT22;10824;51.632;4.950;2023-04-24T00:55:42;10.10;99.90
21331;DHT22;10824;51.632;4.950;2023-04-24T00:58:09;10.10;99.90
21331;DHT22;10824;51.632;4.950;2023-04-24T01:00:36;10.10;99.90
21331;DHT22;10824;51.632;4.950;2023-04-24T01:03:04;10.00;99.90
21331;DHT22;10824;51.632;4.950;2023-04-24T01:05:33;10.00;99.90
21331;DHT22;10824;51.632;4.950;2023-04-24T01:08:01;10.00;99.90
21331;DHT22;10824;51.632;4.950;2023-04-24T01:10:29;10.00;99.90
21331;DHT22;10824;51.632;4.950;2023-04-24T01:12:58;10.10;99.90
21331;DHT22;10824;51.632;4.950;2023-04-24T01:15:26;10.00;99.90
21331;DHT22;10824;51.632;4.950;2023-04-24T01:17:53;10.00;99.90
21331;DHT22;10824;51.632;4.950;2023-04-24T01:20:20;10.00;99.90
21331;DHT22;10824;51.632;4.950;2023-04-24T01:22:48;10.00;99.90
21331;DHT22;10824;51.632;4.950;2023-04-24T01:25:15;10.00;99.90
21331;DHT22;10824;51.632;4.950;2023-04-24T01:27:43;10.00;99.90
21331;DHT22;10824;51.632;4.950;2023-04-24T01:30:11;10.00;99.90
21331;DHT22;10824;51.632;4.950;2023-04-24T01:32:39;10.00;99.90
21331;DHT22;10824;51.632;4.950;2023-04-24T01:35:07;10.00;99.90
21331;DHT22;10824;51.632;4.950;2023-04-24T01:37:34;10.00;99.90
21331;DHT22;10824;51.632;4.950;2023-04-24T01:40:05;10.00;99.90
21331;DHT22;10824;51.632;4.950;2023-04-24T01:42:34;9.90;99.90
21331;DHT22;10824;51.632;4.950;2023-04-24T01:45:03;9.90;99.90
21331;DHT22;10824;51.632;4.950;2023-04-24T01:47:32;10.00;99.90
21331;DHT22;10824;51.632;4.950;2023-04-24T01:49:59;9.90;99.90
21331;DHT22;10824;51.632;4.950;2023-04-24T01:52:26;9.90;99.90
21331;DHT22;10824;51.632;4.950;2023-04-24T01:54:53;9.90;99.90
21331;DHT22;10824;51.632;4.950;2023-04-24T01:57:23;9.90;99.90
21331;DHT22;10824;51.632;4.950;2023-04-24T01:59:50;9.90;99.90
21331;DHT22;10824;51.632;4.950;2023-04-24T02:02:18;9.90;99.90
21331;DHT22;10824;51.632;4.950;2023-04-24T02:04:45;9.80;99.90
21331;DHT22;10824;51.632;4.950;2023-04-24T02:07:12;9.90;99.90
21331;DHT22;10824;51.632;4.950;2023-04-24T02:09:39;9.80;99.90
21331;DHT22;10824;51.632;4.950;2023-04-24T02:12:06;9.80;99.90
21331;DHT22;10824;51.632;4.950;2023-04-24T02:14:33;9.80;99.90
21331;DHT22;10824;51.632;4.950;2023-04-24T02:17:02;9.80;99.90
21331;DHT22;10824;51.632;4.950;2023-04-24T02:19:29;9.80;99.90
21331;DHT22;10824;51.632;4.950;2023-04-24T02:21:56;9.70;99.90
21331;DHT22;10824;51.632;4.950;2023-04-24T02:24:23;9.70;99.90
21331;DHT22;10824;51.632;4.950;2023-04-24T02:26:50;9.70;99.90
21331;DHT22;10824;51.632;4.950;2023-04-24T02:29:17;9.70;99.90
21331;DHT22;10824;51.632;4.950;2023-04-24T02:31:44;9.60;99.90
21331;DHT22;10824;51.632;4.950;2023-04-24T02:34:13;9.70;99.90
21331;DHT22;10824;51.632;4.950;2023-04-24T02:36:41;9.60;99.90
21331;DHT22;10824;51.632;4.950;2023-04-24T02:39:08;9.60;99.90
21331;DHT22;10824;51.632;4.950;2023-04-24T02:41:39;9.60;99.90
21331;DHT22;10824;51.632;4.950;2023-04-24T02:44:08;9.60;99.90
21331;DHT22;10824;51.632;4.950;2023-04-24T02:46:35;9.50;99.90
21331;DHT22;10824;51.632;4.950;2023-04-24T02:49:02;9.50;99.90
21331;DHT22;10824;51.632;4.950;2023-04-24T02:51:29;9.50;99.90
21331;DHT22;10824;51.632;4.950;2023-04-24T02:53:57;9.40;99.90
21331;DHT22;10824;51.632;4.950;2023-04-24T02:56:24;9.40;99.90
21331;DHT22;10824;51.632;4.950;2023-04-24T02:58:52;9.40;99.90
21331;DHT22;10824;51.632;4.950;2023-04-24T03:01:19;9.30;99.90
21331;DHT22;10824;51.632;4.950;2023-04-24T03:03:46;9.30;99.90
21331;DHT22;10824;51.632;4.950;2023-04-24T03:06:13;9.30;99.90
21331;DHT22;10824;51.632;4.950;2023-04-24T03:08:40;9.30;99.90
21331;DHT22;10824;51.632;4.950;2023-04-24T03:11:07;9.30;99.90
21331;DHT22;10824;51.632;4.950;2023-04-24T03:13:34;9.20;99.90
21331;DHT22;10824;51.632;4.950;2023-04-24T03:16:01;9.10;99.90
21331;DHT22;10824;51.632;4.950;2023-04-24T03:18:28;9.20;99.90
21331;DHT22;10824;51.632;4.950;2023-04-24T03:20:55;9.20;99.90
21331;DHT22;10824;51.632;4.950;2023-04-24T03:23:22;9.10;99.90
21331;DHT22;10824;51.632;4.950;2023-04-24T03:25:49;9.10;99.90
21331;DHT22;10824;51.632;4.950;2023-04-24T03:28:18;9.10;99.90
21331;DHT22;10824;51.632;4.950;2023-04-24T03:30:56;9.10;99.90
21331;DHT22;10824;51.632;4.950;2023-04-24T03:33:25;9.10;99.90
21331;DHT22;10824;51.632;4.950;2023-04-24T03:36:00;9.10;99.90
21331;DHT22;10824;51.632;4.950;2023-04-24T03:38:35;9.20;99.90
21331;DHT22;10824;51.632;4.950;2023-04-24T03:41:25;9.10;99.90
21331;DHT22;10824;51.632;4.950;2023-04-24T03:44:02;9.10;99.90
21331;DHT22;10824;51.632;4.950;2023-04-24T03:46:30;9.20;99.90
21331;DHT22;10824;51.632;4.950;2023-04-24T03:49:00;9.20;99.90
21331;DHT22;10824;51.632;4.950;2023-04-24T03:51:32;9.20;99.90
21331;DHT22;10824;51.632;4.950;2023-04-24T03:54:16;9.20;99.90
21331;DHT22;10824;51.632;4.950;2023-04-24T03:56:44;9.20;99.90
21331;DHT22;10824;51.632;4.950;2023-04-24T03:59:12;9.20;99.90
21331;DHT22;10824;51.632;4.950;2023-04-24T04:01:43;9.20;99.90
21331;DHT22;10824;51.632;4.950;2023-04-24T04:04:13;9.20;99.90
21331;DHT22;10824;51.632;4.950;2023-04-24T04:06:43;9.20;99.90
21331;DHT22;10824;51.632;4.950;2023-04-24T04:09:11;9.20;99.90
21331;DHT22;10824;51.632;4.950;2023-04-24T04:11:39;9.20;99.90
21331;DHT22;10824;51.632;4.950;2023-04-24T04:14:06;9.30;99.90
21331;DHT22;10824;51.632;4.950;2023-04-24T04:16:35;9.30;99.90
21331;DHT22;10824;51.632;4.950;2023-04-24T04:19:04;9.30;99.90
21331;DHT22;10824;51.632;4.950;2023-04-24T04:21:32;9.30;99.90
21331;DHT22;10824;51.632;4.950;2023-04-24T04:24:11;9.40;99.90
21331;DHT22;10824;51.632;4.950;2023-04-24T04:26:43;9.30;99.90
21331;DHT22;10824;51.632;4.950;2023-04-24T04:29:22;9.30;99.90
21331;DHT22;10824;51.632;4.950;2023-04-24T04:31:51;9.30;99.90
21331;DHT22;10824;51.632;4.950;2023-04-24T04:34:20;9.30;99.90
21331;DHT22;10824;51.632;4.950;2023-04-24T04:36:48;9.30;99.90
21331;DHT22;10824;51.632;4.950;2023-04-24T04:39:29;9.30;99.90
21331;DHT22;10824;51.632;4.950;2023-04-24T04:42:06;9.30;99.90
21331;DHT22;10824;51.632;4.950;2023-04-24T04:44:40;9.30;99.90
21331;DHT22;10824;51.632;4.950;2023-04-24T04:47:11;9.20;99.90
21331;DHT22;10824;51.632;4.950;2023-04-24T04:49:39;9.30;99.90
21331;DHT22;10824;51.632;4.950;2023-04-24T04:52:14;9.30;99.90
21331;DHT22;10824;51.632;4.950;2023-04-24T04:54:47;9.30;99.90
21331;DHT22;10824;51.632;4.950;2023-04-24T04:57:14;9.30;99.90
21331;DHT22;10824;51.632;4.950;2023-04-24T04:59:41;9.30;99.90
21331;DHT22;10824;51.632;4.950;2023-04-24T05:02:15;9.30;99.90
21331;DHT22;10824;51.632;4.950;2023-04-24T05:04:42;9.30;99.90
21331;DHT22;10824;51.632;4.950;2023-04-24T05:07:11;9.20;99.90
21331;DHT22;10824;51.632;4.950;2023-04-24T05:09:44;9.20;99.90
21331;DHT22;10824;51.632;4.950;2023-04-24T05:12:12;9.30;99.90
21331;DHT22;10824;51.632;4.950;2023-04-24T05:14:46;9.30;99.90
21331;DHT22;10824;51.632;4.950;2023-04-24T05:17:14;9.30;99.90
21331;DHT22;10824;51.632;4.950;2023-04-24T05:19:42;9.30;99.90
21331;DHT22;10824;51.632;4.950;2023-04-24T05:22:10;9.30;99.90
21331;DHT22;10824;51.632;4.950;2023-04-24T05:24:47;9.30;99.90
21331;DHT22;10824;51.632;4.950;2023-04-24T05:27:41;9.30;99.90
21331;DHT22;10824;51.632;4.950;2023-04-24T05:30:14;9.30;99.90
21331;DHT22;10824;51.632;4.950;2023-04-24T05:32:41;9.30;99.90
21331;DHT22;10824;51.632;4.950;2023-04-24T05:35:08;9.20;99.90
21331;DHT22;10824;51.632;4.950;2023-04-24T05:37:36;9.20;99.90
21331;DHT22;10824;51.632;4.950;2023-04-24T05:40:03;9.20;99.90
21331;DHT22;10824;51.632;4.950;2023-04-24T05:42:32;9.20;99.90
21331;DHT22;10824;51.632;4.950;2023-04-24T05:44:59;9.20;99.90
21331;DHT22;10824;51.632;4.950;2023-04-24T05:47:26;9.20;99.90
21331;DHT22;10824;51.632;4.950;2023-04-24T05:49:54;9.20;99.90
21331;DHT22;10824;51.632;4.950;2023-04-24T05:52:21;9.10;99.90
21331;DHT22;10824;51.632;4.950;2023-04-24T05:54:50;9.10;99.90
21331;DHT22;10824;51.632;4.950;2023-04-24T05:57:21;9.10;99.90
21331;DHT22;10824;51.632;4.950;2023-04-24T05:59:53;9.10;99.90
21331;DHT22;10824;51.632;4.950;2023-04-24T06:02:21;9.10;99.90
21331;DHT22;10824;51.632;4.950;2023-04-24T06:04:49;9.10;99.90
21331;DHT22;10824;51.632;4.950;2023-04-24T06:07:17;9.10;99.90
21331;DHT22;10824;51.632;4.950;2023-04-24T06:09:44;9.10;99.90
21331;DHT22;10824;51.632;4.950;2023-04-24T06:12:11;9.10;99.90
21331;DHT22;10824;51.632;4.950;2023-04-24T06:14:51;9.10;99.90
21331;DHT22;10824;51.632;4.950;2023-04-24T06:17:28;9.10;99.90
21331;DHT22;10824;51.632;4.950;2023-04-24T06:19:55;9.10;99.90
21331;DHT22;10824;51.632;4.950;2023-04-24T06:22:24;9.00;99.90
21331;DHT22;10824;51.632;4.950;2023-04-24T06:24:51;9.10;99.90
21331;DHT22;10824;51.632;4.950;2023-04-24T06:27:18;9.10;99.90
21331;DHT22;10824;51.632;4.950;2023-04-24T06:29:45;9.10;99.90
21331;DHT22;10824;51.632;4.950;2023-04-24T06:32:12;9.10;99.90
21331;DHT22;10824;51.632;4.950;2023-04-24T06:34:39;9.10;99.90
21331;DHT22;10824;51.632;4.950;2023-04-24T06:37:06;9.10;99.90
21331;DHT22;10824;51.632;4.950;2023-04-24T06:39:33;9.10;99.90
21331;DHT22;10824;51.632;4.950;2023-04-24T06:42:01;9.10;99.90
21331;DHT22;10824;51.632;4.950;2023-04-24T06:44:28;9.10;99.90
21331;DHT22;10824;51.632;4.950;2023-04-24T06:46:56;9.10;99.90
21331;DHT22;10824;51.632;4.950;2023-04-24T06:49:24;9.10;99.90
21331;DHT22;10824;51.632;4.950;2023-04-24T06:51:51;9.10;99.90
21331;DHT22;10824;51.632;4.950;2023-04-24T06:54:18;9.10;99.90
21331;DHT22;10824;51.632;4.950;2023-04-24T06:56:45;9.00;99.90
21331;DHT22;10824;51.632;4.950;2023-04-24T06:59:14;9.00;99.90
21331;DHT22;10824;51.632;4.950;2023-04-24T07:01:42;9.00;99.90
21331;DHT22;10824;51.632;4.950;2023-04-24T07:04:11;9.00;99.90
21331;DHT22;10824;51.632;4.950;2023-04-24T07:06:40;9.10;99.90
21331;DHT22;10824;51.632;4.950;2023-04-24T07:09:07;9.10;99.90
21331;DHT22;10824;51.632;4.950;2023-04-24T07:11:35;9.00;99.90
21331;DHT22;10824;51.632;4.950;2023-04-24T07:14:04;9.00;99.90
21331;DHT22;10824;51.632;4.950;2023-04-24T07:16:32;9.00;99.90
21331;DHT22;10824;51.632;4.950;2023-04-24T07:18:59;9.10;99.90
21331;DHT22;10824;51.632;4.950;2023-04-24T07:21:26;9.10;99.90
21331;DHT22;10824;51.632;4.950;2023-04-24T07:23:54;9.10;99.90
21331;DHT22;10824;51.632;4.950;2023-04-24T07:26:22;9.10;99.90
21331;DHT22;10824;51.632;4.950;2023-04-24T07:28:49;9.10;99.90
21331;DHT22;10824;51.632;4.950;2023-04-24T07:31:16;9.10;99.90
21331;DHT22;10824;51.632;4.950;2023-04-24T07:33:43;9.10;99.90
21331;DHT22;10824;51.632;4.950;2023-04-24T07:36:11;9.10;99.90
21331;DHT22;10824;51.632;4.950;2023-04-24T07:38:43;9.10;99.90
21331;DHT22;10824;51.632;4.950;2023-04-24T07:41:12;9.10;99.90
21331;DHT22;10824;51.632;4.950;2023-04-24T07:43:39;9.10;99.90
21331;DHT22;10824;51.632;4.950;2023-04-24T07:46:07;9.10;99.90
21331;DHT22;10824;51.632;4.950;2023-04-24T07:48:37;9.10;99.90
21331;DHT22;10824;51.632;4.950;2023-04-24T07:51:05;9.10;99.90
21331;DHT22;10824;51.632;4.950;2023-04-24T07:53:32;9.10;99.90
21331;DHT22;10824;51.632;4.950;2023-04-24T07:55:59;9.10;99.90
21331;DHT22;10824;51.632;4.950;2023-04-24T07:58:26;9.10;99.90
21331;DHT22;10824;51.632;4.950;2023-04-24T08:00:54;9.10;99.90
21331;DHT22;10824;51.632;4.950;2023-04-24T08:03:21;9.10;99.90
21331;DHT22;10824;51.632;4.950;2023-04-24T08:05:48;9.20;99.90
21331;DHT22;10824;51.632;4.950;2023-04-24T08:08:15;9.10;99.90
21331;DHT22;10824;51.632;4.950;2023-04-24T08:10:42;9.20;99.90
21331;DHT22;10824;51.632;4.950;2023-04-24T08:13:10;9.20;99.90
21331;DHT22;10824;51.632;4.950;2023-04-24T08:15:39;9.20;99.90
21331;DHT22;10824;51.632;4.950;2023-04-24T08:18:06;9.20;99.90
21331;DHT22;10824;51.632;4.950;2023-04-24T08:20:33;9.30;99.90
21331;DHT22;10824;51.632;4.950;2023-04-24T08:23:00;9.20;99.90
21331;DHT22;10824;51.632;4.950;2023-04-24T08:25:27;9.30;99.90
21331;DHT22;10824;51.632;4.950;2023-04-24T08:27:54;9.30;99.90
21331;DHT22;10824;51.632;4.950;2023-04-24T08:30:22;9.30;99.90
21331;DHT22;10824;51.632;4.950;2023-04-24T08:32:49;9.30;99.90
21331;DHT22;10824;51.632;4.950;2023-04-24T08:35:17;9.20;99.90
21331;DHT22;10824;51.632;4.950;2023-04-24T08:37:44;9.10;99.90
21331;DHT22;10824;51.632;4.950;2023-04-24T08:40:15;9.00;99.90
21331;DHT22;10824;51.632;4.950;2023-04-24T08:42:43;9.00;99.70
21331;DHT22;10824;51.632;4.950;2023-04-24T08:45:12;9.10;99.80
21331;DHT22;10824;51.632;4.950;2023-04-24T08:47:41;9.10;99.90
21331;DHT22;10824;51.632;4.950;2023-04-24T08:50:09;9.20;99.90
21331;DHT22;10824;51.632;4.950;2023-04-24T08:52:36;9.20;97.70
21331;DHT22;10824;51.632;4.950;2023-04-24T08:55:04;9.20;98.40
21331;DHT22;10824;51.632;4.950;2023-04-24T08:57:32;9.30;98.50
21331;DHT22;10824;51.632;4.950;2023-04-24T09:00:00;9.20;96.60
21331;DHT22;10824;51.632;4.950;2023-04-24T09:02:28;9.30;97.60
21331;DHT22;10824;51.632;4.950;2023-04-24T09:04:57;9.20;98.00
21331;DHT22;10824;51.632;4.950;2023-04-24T09:07:25;9.20;96.40
21331;DHT22;10824;51.632;4.950;2023-04-24T09:09:54;9.00;92.10
21331;DHT22;10824;51.632;4.950;2023-04-24T09:12:22;9.10;93.70
21331;DHT22;10824;51.632;4.950;2023-04-24T09:14:52;9.10;93.30
21331;DHT22;10824;51.632;4.950;2023-04-24T09:17:19;9.10;90.90
21331;DHT22;10824;51.632;4.950;2023-04-24T09:19:46;9.10;88.90
21331;DHT22;10824;51.632;4.950;2023-04-24T09:22:15;9.20;91.40
21331;DHT22;10824;51.632;4.950;2023-04-24T09:24:45;9.20;86.50
21331;DHT22;10824;51.632;4.950;2023-04-24T09:27:12;9.30;85.40
21331;DHT22;10824;51.632;4.950;2023-04-24T09:29:53;9.40;85.40
21331;DHT22;10824;51.632;4.950;2023-04-24T09:32:21;9.50;84.20
21331;DHT22;10824;51.632;4.950;2023-04-24T09:34:49;9.50;81.50
21331;DHT22;10824;51.632;4.950;2023-04-24T09:37:29;9.50;79.00
21331;DHT22;10824;51.632;4.950;2023-04-24T09:40:14;9.60;81.40
21331;DHT22;10824;51.632;4.950;2023-04-24T09:43:05;9.50;78.50
21331;DHT22;10824;51.632;4.950;2023-04-24T09:45:38;9.50;75.30
21331;DHT22;10824;51.632;4.950;2023-04-24T09:48:10;9.50;74.90
21331;DHT22;10824;51.632;4.950;2023-04-24T09:50:37;9.40;69.70
21331;DHT22;10824;51.632;4.950;2023-04-24T09:53:06;9.50;75.00
21331;DHT22;10824;51.632;4.950;2023-04-24T09:55:45;9.50;73.60
21331;DHT22;10824;51.632;4.950;2023-04-24T09:58:13;9.40;73.40
21331;DHT22;10824;51.632;4.950;2023-04-24T10:00:41;9.40;65.20
21331;DHT22;10824;51.632;4.950;2023-04-24T10:03:08;9.30;60.70
21331;DHT22;10824;51.632;4.950;2023-04-24T10:05:37;9.40;59.50
21331;DHT22;10824;51.632;4.950;2023-04-24T10:08:08;9.30;57.60
21331;DHT22;10824;51.632;4.950;2023-04-24T10:10:39;9.30;58.00
21331;DHT22;10824;51.632;4.950;2023-04-24T10:13:09;9.30;56.70
21331;DHT22;10824;51.632;4.950;2023-04-24T10:15:38;9.40;56.80
21331;DHT22;10824;51.632;4.950;2023-04-24T10:18:05;9.30;57.80
21331;DHT22;10824;51.632;4.950;2023-04-24T10:20:37;9.30;59.50
21331;DHT22;10824;51.632;4.950;2023-04-24T10:23:05;9.40;61.00
21331;DHT22;10824;51.632;4.950;2023-04-24T10:25:34;9.30;60.60
21331;DHT22;10824;51.632;4.950;2023-04-24T10:28:02;9.30;61.90
21331;DHT22;10824;51.632;4.950;2023-04-24T10:30:32;9.40;61.90
21331;DHT22;10824;51.632;4.950;2023-04-24T10:33:04;9.50;62.60
21331;DHT22;10824;51.632;4.950;2023-04-24T10:35:34;9.40;60.40
21331;DHT22;10824;51.632;4.950;2023-04-24T10:38:08;9.50;63.10
21331;DHT22;10824;51.632;4.950;2023-04-24T10:40:36;9.40;59.20
21331;DHT22;10824;51.632;4.950;2023-04-24T10:43:05;9.40;63.00
21331;DHT22;10824;51.632;4.950;2023-04-24T10:45:35;9.50;59.00
21331;DHT22;10824;51.632;4.950;2023-04-24T10:48:04;9.50;57.20
21331;DHT22;10824;51.632;4.950;2023-04-24T10:50:51;9.40;53.80
21331;DHT22;10824;51.632;4.950;2023-04-24T10:53:21;9.50;54.20
21331;DHT22;10824;51.632;4.950;2023-04-24T10:55:51;9.50;53.80
21331;DHT22;10824;51.632;4.950;2023-04-24T10:58:25;9.50;54.70
21331;DHT22;10824;51.632;4.950;2023-04-24T11:01:02;9.60;54.00
21331;DHT22;10824;51.632;4.950;2023-04-24T11:03:32;9.70;54.90
21331;DHT22;10824;51.632;4.950;2023-04-24T11:06:05;9.70;55.50
21331;DHT22;10824;51.632;4.950;2023-04-24T11:08:39;9.70;57.70
21331;DHT22;10824;51.632;4.950;2023-04-24T11:11:14;9.60;54.60
21331;DHT22;10824;51.632;4.950;2023-04-24T11:21:45;9.60;61.50
21331;DHT22;10824;51.632;4.950;2023-04-24T11:30:02;9.80;59.90
21331;DHT22;10824;51.632;4.950;2023-04-24T11:35:02;9.90;55.20
21331;DHT22;10824;51.632;4.950;2023-04-24T11:37:39;9.90;54.40
21331;DHT22;10824;51.632;4.950;2023-04-24T11:40:11;9.90;52.80
21331;DHT22;10824;51.632;4.950;2023-04-24T11:42:40;10.00;52.50
21331;DHT22;10824;51.632;4.950;2023-04-24T11:45:15;10.00;51.30
21331;DHT22;10824;51.632;4.950;2023-04-24T11:47:43;9.90;50.90
21331;DHT22;10824;51.632;4.950;2023-04-24T11:50:13;10.00;51.40
21331;DHT22;10824;51.632;4.950;2023-04-24T11:52:42;9.90;48.30
21331;DHT22;10824;51.632;4.950;2023-04-24T11:57:50;10.00;46.20
21331;DHT22;10824;51.632;4.950;2023-04-24T12:00:23;10.00;46.30
21331;DHT22;10824;51.632;4.950;2023-04-24T12:03:04;10.00;46.00
21331;DHT22;10824;51.632;4.950;2023-04-24T12:05:33;10.00;45.60
21331;DHT22;10824;51.632;4.950;2023-04-24T12:08:01;10.00;46.50
21331;DHT22;10824;51.632;4.950;2023-04-24T12:10:30;10.00;46.00
21331;DHT22;10824;51.632;4.950;2023-04-24T12:12:58;9.90;45.80
21331;DHT22;10824;51.632;4.950;2023-04-24T12:15:27;10.00;47.90
21331;DHT22;10824;51.632;4.950;2023-04-24T12:17:55;10.30;47.70
21331;DHT22;10824;51.632;4.950;2023-04-24T12:20:30;10.50;45.80
21331;DHT22;10824;51.632;4.950;2023-04-24T12:22:58;10.30;44.20
21331;DHT22;10824;51.632;4.950;2023-04-24T12:25:31;10.20;50.50
21331;DHT22;10824;51.632;4.950;2023-04-24T12:30:31;9.90;61.10
21331;DHT22;10824;51.632;4.950;2023-04-24T12:32:59;10.20;62.70
21331;DHT22;10824;51.632;4.950;2023-04-24T12:35:29;10.20;59.40
21331;DHT22;10824;51.632;4.950;2023-04-24T12:38:15;10.30;57.30
21331;DHT22;10824;51.632;4.950;2023-04-24T12:40:43;10.40;52.00
21331;DHT22;10824;51.632;4.950;2023-04-24T12:43:18;10.50;55.10
21331;DHT22;10824;51.632;4.950;2023-04-24T12:45:47;10.70;59.20
21331;DHT22;10824;51.632;4.950;2023-04-24T12:48:15;10.50;63.30
21331;DHT22;10824;51.632;4.950;2023-04-24T12:50:43;10.10;60.50
21331;DHT22;10824;51.632;4.950;2023-04-24T12:53:13;10.20;61.10
21331;DHT22;10824;51.632;4.950;2023-04-24T12:55:43;10.30;55.80
21331;DHT22;10824;51.632;4.950;2023-04-24T12:58:11;10.40;56.60
21331;DHT22;10824;51.632;4.950;2023-04-24T13:00:39;10.40;58.20
21331;DHT22;10824;51.632;4.950;2023-04-24T13:03:06;10.40;58.90
21331;DHT22;10824;51.632;4.950;2023-04-24T13:05:33;10.30;61.00
21331;DHT22;10824;51.632;4.950;2023-04-24T13:08:01;10.20;60.50
21331;DHT22;10824;51.632;4.950;2023-04-24T13:10:28;10.30;60.90
21331;DHT22;10824;51.632;4.950;2023-04-24T13:12:55;10.30;62.40
21331;DHT22;10824;51.632;4.950;2023-04-24T13:15:22;10.30;59.70
21331;DHT22;10824;51.632;4.950;2023-04-24T13:17:50;10.10;54.90
21331;DHT22;10824;51.632;4.950;2023-04-24T13:20:18;10.30;57.40
21331;DHT22;10824;51.632;4.950;2023-04-24T13:22:45;10.10;57.10
21331;DHT22;10824;51.632;4.950;2023-04-24T13:25:12;10.00;57.30
21331;DHT22;10824;51.632;4.950;2023-04-24T13:27:39;10.10;60.30
21331;DHT22;10824;51.632;4.950;2023-04-24T13:30:07;10.10;58.40
21331;DHT22;10824;51.632;4.950;2023-04-24T13:32:34;10.10;59.10
21331;DHT22;10824;51.632;4.950;2023-04-24T13:35:02;10.20;59.10
21331;DHT22;10824;51.632;4.950;2023-04-24T13:37:30;10.40;57.30
21331;DHT22;10824;51.632;4.950;2023-04-24T13:39:57;10.60;50.80
21331;DHT22;10824;51.632;4.950;2023-04-24T13:42:24;10.60;48.10
21331;DHT22;10824;51.632;4.950;2023-04-24T13:44:52;10.70;50.40
21331;DHT22;10824;51.632;4.950;2023-04-24T13:47:20;10.50;42.90
21331;DHT22;10824;51.632;4.950;2023-04-24T13:49:48;10.70;41.70
21331;DHT22;10824;51.632;4.950;2023-04-24T13:52:15;10.80;35.90
21331;DHT22;10824;51.632;4.950;2023-04-24T13:54:42;10.80;34.70
21331;DHT22;10824;51.632;4.950;2023-04-24T13:57:09;10.90;36.70
21331;DHT22;10824;51.632;4.950;2023-04-24T13:59:38;11.00;35.00
21331;DHT22;10824;51.632;4.950;2023-04-24T14:02:06;11.10;37.20
21331;DHT22;10824;51.632;4.950;2023-04-24T14:04:34;11.20;36.10
21331;DHT22;10824;51.632;4.950;2023-04-24T14:07:01;11.30;35.30
21331;DHT22;10824;51.632;4.950;2023-04-24T14:09:28;11.10;31.80
21331;DHT22;10824;51.632;4.950;2023-04-24T14:11:55;11.00;30.20
21331;DHT22;10824;51.632;4.950;2023-04-24T14:14:23;11.50;31.90
21331;DHT22;10824;51.632;4.950;2023-04-24T14:16:50;11.30;27.60
21331;DHT22;10824;51.632;4.950;2023-04-24T14:19:17;11.10;29.00
21331;DHT22;10824;51.632;4.950;2023-04-24T14:21:44;11.10;32.00
21331;DHT22;10824;51.632;4.950;2023-04-24T14:24:11;11.20;33.90
21331;DHT22;10824;51.632;4.950;2023-04-24T14:26:39;11.30;34.00
21331;DHT22;10824;51.632;4.950;2023-04-24T14:29:06;11.30;36.10
21331;DHT22;10824;51.632;4.950;2023-04-24T14:31:41;11.50;35.00
21331;DHT22;10824;51.632;4.950;2023-04-24T14:34:08;11.10;32.80
21331;DHT22;10824;51.632;4.950;2023-04-24T14:36:35;11.10;34.00
21331;DHT22;10824;51.632;4.950;2023-04-24T14:39:02;11.10;37.10
21331;DHT22;10824;51.632;4.950;2023-04-24T14:41:34;11.10;37.60
21331;DHT22;10824;51.632;4.950;2023-04-24T14:44:03;11.20;42.60
21331;DHT22;10824;51.632;4.950;2023-04-24T14:46:32;10.90;48.90
21331;DHT22;10824;51.632;4.950;2023-04-24T14:48:59;10.50;56.80
21331;DHT22;10824;51.632;4.950;2023-04-24T14:51:26;10.30;59.30
21331;DHT22;10824;51.632;4.950;2023-04-24T14:53:53;10.30;62.70
21331;DHT22;10824;51.632;4.950;2023-04-24T14:56:21;10.40;64.20
21331;DHT22;10824;51.632;4.950;2023-04-24T14:58:48;10.40;61.30
21331;DHT22;10824;51.632;4.950;2023-04-24T15:01:15;10.50;64.30
21331;DHT22;10824;51.632;4.950;2023-04-24T15:03:43;10.70;64.80
21331;DHT22;10824;51.632;4.950;2023-04-24T15:06:12;10.80;64.90
21331;DHT22;10824;51.632;4.950;2023-04-24T15:08:39;10.60;57.50
21331;DHT22;10824;51.632;4.950;2023-04-24T15:11:06;10.60;57.30
21331;DHT22;10824;51.632;4.950;2023-04-24T15:13:33;10.80;60.10
21331;DHT22;10824;51.632;4.950;2023-04-24T15:16:00;10.80;59.50
21331;DHT22;10824;51.632;4.950;2023-04-24T15:18:28;11.10;55.80
21331;DHT22;10824;51.632;4.950;2023-04-24T15:20:56;11.00;55.30
21331;DHT22;10824;51.632;4.950;2023-04-24T15:23:23;10.90;55.30
21331;DHT22;10824;51.632;4.950;2023-04-24T15:25:50;10.80;53.80
21331;DHT22;10824;51.632;4.950;2023-04-24T15:28:18;10.50;48.00
21331;DHT22;10824;51.632;4.950;2023-04-24T15:30:45;10.50;46.10
21331;DHT22;10824;51.632;4.950;2023-04-24T15:33:12;10.50;46.50
21331;DHT22;10824;51.632;4.950;2023-04-24T15:35:39;10.40;45.30
21331;DHT22;10824;51.632;4.950;2023-04-24T15:38:07;10.40;44.60
21331;DHT22;10824;51.632;4.950;2023-04-24T15:40:36;10.30;40.80
21331;DHT22;10824;51.632;4.950;2023-04-24T15:43:04;10.40;40.30
21331;DHT22;10824;51.632;4.950;2023-04-24T15:45:32;10.60;38.90
21331;DHT22;10824;51.632;4.950;2023-04-24T15:48:00;10.80;38.50
21331;DHT22;10824;51.632;4.950;2023-04-24T15:50:27;10.90;36.50
21331;DHT22;10824;51.632;4.950;2023-04-24T15:52:55;11.00;36.00
21331;DHT22;10824;51.632;4.950;2023-04-24T15:55:22;11.10;36.00
21331;DHT22;10824;51.632;4.950;2023-04-24T15:57:52;11.00;36.00
21331;DHT22;10824;51.632;4.950;2023-04-24T16:00:57;10.90;35.90
21331;DHT22;10824;51.632;4.950;2023-04-24T16:03:24;11.10;35.10
21331;DHT22;10824;51.632;4.950;2023-04-24T16:05:52;11.30;34.90
21331;DHT22;10824;51.632;4.950;2023-04-24T16:08:20;11.40;32.80
21331;DHT22;10824;51.632;4.950;2023-04-24T16:10:48;11.40;30.90
21331;DHT22;10824;51.632;4.950;2023-04-24T16:13:15;11.20;29.30